SAWG

Piloto Civil N. Fernández Airport

Rio Gallegos, Argentina
TAF SAWG 181700Z 1818/1918 32015KT 9999 BKN025 BKN030 TX20/1918Z TN08/1910Z TEMPO 1818/1823 29020G30KT BECMG 1902/1904 VRB07KT BKN025
Issued Valid From Valid To
Dec-18 @ 17:00 UTC
(7 hours ago)
Dec-18 @ 18:00 UTC
(6 hours ago)
Dec-19 @ 18:00 UTC
(in 18 hours)
Dec-18 @ 18:00 to Dec-19 @ 02:00
TAF SAWG 181700Z 1818/1918 32015KT 9999 BKN025 BKN030 TX20/1918Z TN08/1910Z
Wind Visibility Clouds
320° at 15 knots 10,000+ meters
  • Broken at 2,500' AGL
  • Broken at 3,000' AGL
Expired Click to View Dec-18 @ 18:00 to Dec-18 @ 23:00
TEMPO 1818/1823 29020G30KT
Wind
290° at 20 knots
 Gusting to 30 knots
Becoming Dec-19 @ 02:00 to Dec-19 @ 18:00
BECMG 1902/1904 VRB07KT BKN025
Wind Visibility Clouds
Variable at 7 knots 10,000+ meters
  • Broken at 2,500' AGL
TAF SAWG 181700Z 1818/1918 32015KT 9999 BKN025 BKN030 TX20/1918Z TN08/1910Z TEMPO 1818/1823 29020G30KT BECMG 1902/1904 VRB07KT BKN025
Issued Dec-18 @ 17:00 UTC
(7 hours ago)
Valid From Dec-18 @ 18:00 UTC
(6 hours ago)
Valid To Dec-19 @ 18:00 UTC
(in 18 hours)
Dec-18 @ 18:00 - Dec-19 @ 02:00
Wind Visibility
320° at 15 knots 10,000+ meters
Clouds
  • Broken at 2,500' AGL
  • Broken at 3,000' AGL
Dec-18 @ 18:00 - Dec-18 @ 23:00
Wind
290° at 20 knots
 Gusting to 30 knots
Becoming Dec-19 @ 02:00 - Dec-19 @ 18:00
Wind Visibility
Variable at 7 knots 10,000+ meters
Clouds
  • Broken at 2,500' AGL